Time;durP1;ratioP1;P1;durP2;ratioP2;P2;SDS_P1;SDS_P2;PMS_P1;PMS_P2;Temp;Humidity;BMP_temperature;BMP_pressure;BME280_temperature;BME280_humidity;BME280_pressure;Samples;Min_cycle;Max_cycle;Signal;HPM_P1;HPM_P2
2022/09/21 00:01:13;;;;;;;21.27;10.77;;;;;;;9.88;100.00;102208.13;5051403;28;20052;-72
2022/09/21 00:03:41;;;;;;;20.88;9.93;;;;;;;9.89;100.00;102209.72;5053077;28;20063;-75
2022/09/21 00:06:10;;;;;;;23.05;11.15;;;;;;;9.88;100.00;102199.03;5052137;28;20055;-74
2022/09/21 00:08:37;;;;;;;19.75;10.00;;;;;;;9.88;100.00;102197.09;5052152;28;20056;-74
2022/09/21 00:11:04;;;;;;;33.05;10.23;;;;;;;9.78;100.00;102196.78;5049335;28;20378;-74
2022/09/21 00:13:32;;;;;;;24.08;9.75;;;;;;;9.82;100.00;102201.25;5051908;28;20048;-75
2022/09/21 00:15:59;;;;;;;25.42;11.07;;;;;;;9.82;100.00;102208.78;5052193;28;20056;-75
2022/09/21 00:18:25;;;;;;;19.67;10.68;;;;;;;9.79;100.00;102206.72;5052434;28;20053;-74
2022/09/21 00:20:52;;;;;;;22.65;11.57;;;;;;;9.74;100.00;102205.03;5052421;28;20060;-74
2022/09/21 00:23:19;;;;;;;23.77;11.13;;;;;;;9.69;100.00;102204.47;5050387;28;20052;-75
2022/09/21 00:25:45;;;;;;;25.48;10.95;;;;;;;9.71;100.00;102205.72;5052137;28;20052;-75
2022/09/21 00:28:12;;;;;;;24.45;10.73;;;;;;;9.70;100.00;102209.66;5053057;28;20133;-75
2022/09/21 00:30:38;;;;;;;21.52;10.20;;;;;;;9.68;100.00;102209.19;5052646;28;20060;-74
2022/09/21 00:33:05;;;;;;;24.02;10.52;;;;;;;9.60;100.00;102209.38;5052502;28;20059;-75
2022/09/21 00:35:32;;;;;;;24.00;9.75;;;;;;;9.46;100.00;102197.94;5048328;28;20049;-74
2022/09/21 00:38:01;;;;;;;20.13;9.95;;;;;;;9.55;100.00;102215.94;5051502;28;20139;-74
2022/09/21 00:40:28;;;;;;;22.48;9.90;;;;;;;9.57;100.00;102216.41;5051275;28;20060;-73
2022/09/21 00:43:15;;;;;;;24.63;10.68;;;;;;;9.47;100.00;102210.59;5051338;28;20131;-74
2022/09/21 00:45:45;;;;;;;21.42;10.00;;;;;;;9.37;100.00;102211.09;5050740;28;20067;-72
2022/09/21 00:48:11;;;;;;;18.70;8.80;;;;;;;9.37;100.00;102219.38;5051046;28;20086;-74
2022/09/21 00:50:44;;;;;;;22.48;10.07;;;;;;;9.32;100.00;102212.16;5052253;28;20055;-73
2022/09/21 00:53:12;;;;;;;21.08;9.07;;;;;;;9.41;100.00;102212.81;5050531;28;20044;-72
2022/09/21 00:55:47;;;;;;;19.48;9.02;;;;;;;9.40;100.00;102216.75;5051337;28;20133;-71
2022/09/21 00:58:21;;;;;;;17.52;8.85;;;;;;;9.32;100.00;102217.69;5050256;28;20079;-71
2022/09/21 01:00:48;;;;;;;18.80;9.05;;;;;;;9.35;100.00;102219.75;5052468;28;20157;-70
2022/09/21 01:03:15;;;;;;;20.73;8.93;;;;;;;9.26;100.00;102219.13;5050398;28;20775;-71
2022/09/21 01:05:43;;;;;;;16.65;8.48;;;;;;;9.26;100.00;102224.63;5046722;28;20139;-71
2022/09/21 01:08:12;;;;;;;19.45;8.65;;;;;;;9.19;100.00;102212.59;5047864;28;20048;-71
2022/09/21 01:11:07;;;;;;;16.55;8.43;;;;;;;9.25;100.00;102223.00;5049210;28;20056;-71
2022/09/21 01:13:47;;;;;;;19.58;9.70;;;;;;;9.10;100.00;102225.72;5050581;28;20325;-73
2022/09/21 01:16:42;;;;;;;19.15;8.57;;;;;;;9.08;100.00;102226.06;5043113;28;20048;-73
2022/09/21 01:19:40;;;;;;;17.95;7.90;;;;;;;9.12;100.00;102235.28;5044582;28;20056;-72
2022/09/21 01:22:21;;;;;;;19.48;8.98;;;;;;;9.10;100.00;102226.53;5047842;28;20059;-73
2022/09/21 01:24:50;;;;;;;16.30;8.55;;;;;;;9.13;100.00;102231.38;5047851;28;20051;-73
2022/09/21 01:27:46;;;;;;;18.42;8.52;;;;;;;9.12;100.00;102224.25;5051211;28;20056;-72
2022/09/21 01:30:19;;;;;;;18.80;8.60;;;;;;;9.11;100.00;102221.81;5050560;28;20040;-73
2022/09/21 01:33:07;;;;;;;20.90;8.90;;;;;;;9.07;100.00;102230.00;5050392;28;20044;-73
2022/09/21 01:35:43;;;;;;;20.27;9.18;;;;;;;9.04;100.00;102230.69;5050338;28;20051;-73
2022/09/21 01:38:19;;;;;;;19.00;9.45;;;;;;;8.93;100.00;102229.59;5045421;28;20052;-73
2022/09/21 01:40:51;;;;;;;20.83;8.95;;;;;;;8.97;100.00;102235.19;5047868;28;20048;-73
2022/09/21 01:43:24;;;;;;;18.52;9.50;;;;;;;9.00;100.00;102229.78;5049266;28;20066;-73
2022/09/21 01:45:53;;;;;;;18.48;8.98;;;;;;;9.01;100.00;102236.91;5050251;28;20079;-72
2022/09/21 01:48:23;;;;;;;15.15;8.38;;;;;;;8.99;100.00;102235.66;5046602;28;20801;-72
2022/09/21 01:50:54;;;;;;;17.38;8.10;;;;;;;8.94;100.00;102236.72;5051093;28;20064;-72
2022/09/21 01:53:38;;;;;;;17.05;8.60;;;;;;;8.85;100.00;102233.31;5047802;28;20502;-69
2022/09/21 01:56:14;;;;;;;20.85;8.50;;;;;;;8.86;100.00;102226.63;5051484;28;20060;-73
2022/09/21 01:58:48;;;;;;;18.95;9.30;;;;;;;8.83;100.00;102224.56;5050380;28;20049;-72
2022/09/21 02:01:19;;;;;;;20.70;8.98;;;;;;;8.83;100.00;102234.78;5064474;28;20048;-72
2022/09/21 02:03:50;;;;;;;21.30;8.70;;;;;;;8.81;100.00;102234.34;5066625;28;20040;-72
2022/09/21 02:06:18;;;;;;;18.80;9.50;;;;;;;8.79;100.00;102225.59;5068428;28;20129;-72
2022/09/21 02:08:45;;;;;;;17.83;8.15;;;;;;;8.79;100.00;102229.16;5067822;28;20049;-72
2022/09/21 02:11:12;;;;;;;19.67;9.35;;;;;;;8.82;100.00;102231.25;5065946;28;20056;-73
2022/09/21 02:13:44;;;;;;;22.33;9.52;;;;;;;8.82;100.00;102231.25;5067248;28;20045;-72
2022/09/21 02:16:35;;;;;;;17.90;8.52;;;;;;;8.79;100.00;102237.44;5067401;28;20056;-72
2022/09/21 02:19:06;;;;;;;17.67;8.52;;;;;;;8.79;100.00;102231.94;5067620;28;20056;-72
2022/09/21 02:21:50;;;;;;;17.65;8.27;;;;;;;8.75;100.00;102233.78;5062159;28;20064;-72
2022/09/21 02:24:32;;;;;;;20.42;8.45;;;;;;;8.76;100.00;102237.31;5060080;28;20048;-72
2022/09/21 02:27:02;;;;;;;16.40;8.10;;;;;;;8.66;100.00;102229.53;5067812;28;20048;-71
2022/09/21 02:29:50;;;;;;;21.55;8.98;;;;;;;8.66;100.00;102233.09;5067249;28;20048;-72
2022/09/21 02:32:23;;;;;;;18.10;8.45;;;;;;;8.67;100.00;102231.94;5066772;28;20052;-72
2022/09/21 02:34:56;;;;;;;17.85;8.60;;;;;;;8.65;100.00;102234.25;5067559;28;20056;-72
2022/09/21 02:37:31;;;;;;;16.98;8.25;;;;;;;8.63;100.00;102235.75;5067604;28;20048;-72
2022/09/21 02:40:23;;;;;;;19.40;7.93;;;;;;;8.59;100.00;102235.66;5067116;28;20314;-71
2022/09/21 02:43:14;;;;;;;19.38;9.13;;;;;;;8.56;100.00;102239.09;5061445;28;20068;-75
2022/09/21 02:45:46;;;;;;;16.73;8.57;;;;;;;8.56;100.00;102233.59;5061231;28;20040;-72
2022/09/21 02:48:17;;;;;;;17.10;8.52;;;;;;;8.53;100.00;102226.00;5067355;28;20056;-72
2022/09/21 02:50:46;;;;;;;18.77;8.00;;;;;;;8.52;100.00;102240.13;5059181;28;20417;-71
2022/09/21 02:53:16;;;;;;;16.23;7.57;;;;;;;8.48;100.00;102226.25;5057529;28;20052;-73
2022/09/21 02:55:44;;;;;;;16.55;7.95;;;;;;;8.45;100.00;102231.63;5063511;28;20056;-72
2022/09/21 02:58:14;;;;;;;18.92;7.85;;;;;;;8.41;100.00;102223.28;5071709;28;20056;-72
2022/09/21 03:00:41;;;;;;;15.70;7.65;;;;;;;8.37;100.00;102222.31;5070692;28;20048;-71
2022/09/21 03:03:20;;;;;;;18.38;8.07;;;;;;;8.33;100.00;102228.91;5069433;28;20079;-70
2022/09/21 03:05:49;;;;;;;20.02;8.15;;;;;;;8.33;100.00;102226.16;5071115;28;20052;-72
2022/09/21 03:08:17;;;;;;;18.75;8.30;;;;;;;8.29;100.00;102220.50;5071628;28;20479;-72
2022/09/21 03:10:45;;;;;;;17.35;8.75;;;;;;;8.32;100.00;102221.75;5070194;28;20121;-72
2022/09/21 03:13:12;;;;;;;17.67;7.82;;;;;;;8.28;100.00;102221.66;5068835;28;20060;-72
2022/09/21 03:15:39;;;;;;;18.20;7.90;;;;;;;8.35;100.00;102227.41;5071616;28;20114;-71
2022/09/21 03:18:08;;;;;;;18.67;8.63;;;;;;;8.35;100.00;102229.34;5070505;28;20048;-71
2022/09/21 03:20:36;;;;;;;16.88;7.32;;;;;;;8.23;100.00;102218.34;5071188;28;20052;-71
2022/09/21 03:23:03;;;;;;;19.42;8.05;;;;;;;8.31;100.00;102234.75;5069621;28;20052;-72
2022/09/21 03:25:30;;;;;;;16.33;8.20;;;;;;;8.29;100.00;102242.56;5064606;28;20045;-71
2022/09/21 03:27:57;;;;;;;18.05;8.18;;;;;;;8.27;100.00;102238.56;5070873;28;20047;-72
2022/09/21 03:30:26;;;;;;;19.63;8.18;;;;;;;8.27;100.00;102242.09;5070706;28;20505;-72
2022/09/21 03:32:53;;;;;;;17.63;9.07;;;;;;;8.24;100.00;102240.06;5069183;28;20173;-69
2022/09/21 03:35:21;;;;;;;17.95;7.93;;;;;;;8.22;100.00;102241.53;5070335;28;20045;-72
2022/09/21 03:37:48;;;;;;;21.95;8.70;;;;;;;8.13;100.00;102244.38;5070261;28;20078;-72
2022/09/21 03:40:16;;;;;;;18.38;8.07;;;;;;;8.12;100.00;102240.00;5071097;28;20127;-72
2022/09/21 03:42:44;;;;;;;20.20;8.95;;;;;;;8.11;100.00;102245.88;5069642;28;20051;-72
2022/09/21 03:45:11;;;;;;;18.85;7.72;;;;;;;8.10;100.00;102245.03;5070813;28;20055;-72
2022/09/21 03:47:38;;;;;;;18.50;8.30;;;;;;;8.05;100.00;102228.75;5070642;28;20045;-72
2022/09/21 03:50:06;;;;;;;17.17;7.97;;;;;;;8.13;100.00;102241.59;5068032;28;20390;-72
2022/09/21 03:52:37;;;;;;;17.10;7.78;;;;;;;8.09;100.00;102237.16;5069779;28;20136;-73
2022/09/21 03:55:08;;;;;;;18.05;8.18;;;;;;;8.07;100.00;102243.00;5069933;28;20037;-71
2022/09/21 03:57:35;;;;;;;18.92;8.20;;;;;;;8.08;100.00;102252.88;5069827;28;20513;-74
2022/09/21 04:00:08;;;;;;;19.17;8.55;;;;;;;8.09;100.00;102248.97;5070380;28;20048;-71
2022/09/21 04:02:40;;;;;;;16.63;7.60;;;;;;;7.99;100.00;102243.91;5069113;28;20059;-74
2022/09/21 04:05:10;;;;;;;16.13;7.40;;;;;;;8.00;100.00;102251.00;5069932;28;20041;-73
2022/09/21 04:07:36;;;;;;;16.92;7.70;;;;;;;8.00;100.00;102249.06;5068981;28;20049;-68
2022/09/21 04:10:05;;;;;;;18.40;8.15;;;;;;;8.01;100.00;102249.88;5069754;28;20790;-71
2022/09/21 04:12:33;;;;;;;18.02;8.20;;;;;;;7.93;100.00;102248.00;5069980;28;20048;-73
2022/09/21 04:15:00;;;;;;;17.02;8.20;;;;;;;8.00;100.00;102248.25;5069041;28;20052;-74
2022/09/21 04:17:28;;;;;;;22.27;8.85;;;;;;;8.01;100.00;102244.38;5070439;28;20123;-74
2022/09/21 04:19:54;;;;;;;19.65;8.57;;;;;;;7.94;100.00;102233.91;5068965;28;20060;-75
2022/09/21 04:22:23;;;;;;;22.30;9.35;;;;;;;7.94;100.00;102242.16;5068474;28;20852;-73
2022/09/21 04:24:50;;;;;;;19.60;9.23;;;;;;;7.93;100.00;102256.28;5070050;28;20040;-74
2022/09/21 04:27:17;;;;;;;17.88;8.10;;;;;;;7.91;100.00;102256.63;5069662;28;20098;-75
2022/09/21 04:29:43;;;;;;;23.50;9.27;;;;;;;7.92;100.00;102252.75;5068487;28;20045;-73
2022/09/21 04:32:10;;;;;;;19.70;8.52;;;;;;;7.91;100.00;102251.13;5069191;28;20056;-73
2022/09/21 04:34:38;;;;;;;17.90;8.43;;;;;;;7.88;100.00;102254.59;5068517;28;20040;-74
2022/09/21 04:37:08;;;;;;;20.42;9.32;;;;;;;7.81;100.00;102242.50;5070083;28;20056;-73
2022/09/21 04:39:35;;;;;;;18.80;8.43;;;;;;;7.87;100.00;102252.16;5069651;28;20048;-74
2022/09/21 04:42:01;;;;;;;21.20;9.40;;;;;;;7.78;100.00;102254.22;5068408;28;20145;-73
2022/09/21 04:44:29;;;;;;;15.25;8.57;;;;;;;7.70;100.00;102252.38;5069513;28;20048;-74
2022/09/21 04:46:57;;;;;;;22.35;9.55;;;;;;;7.71;100.00;102253.97;5066371;28;20040;-73
2022/09/21 04:49:23;;;;;;;19.75;9.60;;;;;;;7.71;100.00;102260.28;5062510;28;20063;-73
2022/09/21 04:51:50;;;;;;;20.95;9.00;;;;;;;7.74;100.00;102253.28;5067751;28;20044;-74
2022/09/21 04:54:17;;;;;;;20.33;9.23;;;;;;;7.73;100.00;102251.69;5068557;28;20048;-74
2022/09/21 04:56:44;;;;;;;20.77;9.40;;;;;;;7.79;100.00;102264.88;5069920;28;20123;-72
2022/09/21 04:59:10;;;;;;;19.90;9.13;;;;;;;7.77;100.00;102263.63;5068653;28;20791;-74
2022/09/21 05:01:37;;;;;;;19.60;10.05;;;;;;;7.75;100.00;102258.44;5068210;28;20051;-72
2022/09/21 05:04:03;;;;;;;20.35;9.93;;;;;;;7.74;100.00;102270.59;5068444;28;20551;-72
2022/09/21 05:06:31;;;;;;;20.52;9.73;;;;;;;7.68;100.00;102273.94;5068665;28;20048;-73
2022/09/21 05:11:44;;;;;;;27.27;11.65;;;;;;;7.68;100.00;102280.25;5068850;28;20049;-73
2022/09/21 05:14:11;;;;;;;21.23;9.93;;;;;;;7.65;100.00;102261.66;5069206;28;20052;-70
2022/09/21 05:16:37;;;;;;;23.08;10.48;;;;;;;7.68;100.00;102273.94;5069587;28;20048;-71
2022/09/21 05:19:04;;;;;;;21.50;10.15;;;;;;;7.68;100.00;102272.00;5066922;28;20156;-71
2022/09/21 05:21:31;;;;;;;20.20;9.93;;;;;;;7.62;100.00;102267.00;5067697;28;20125;-70
2022/09/21 05:23:57;;;;;;;20.40;9.77;;;;;;;7.62;100.00;102267.84;5068511;28;20060;-73
2022/09/21 05:26:24;;;;;;;20.98;9.88;;;;;;;7.58;100.00;102277.09;5066182;28;20056;-72
2022/09/21 05:28:51;;;;;;;22.25;9.60;;;;;;;7.54;100.00;102284.44;5068994;28;20052;-72
2022/09/21 05:31:50;;;;;;;18.50;9.70;;;;;;;7.53;100.00;102285.59;5065963;28;20059;-73
2022/09/21 05:34:37;;;;;;;24.88;11.70;;;;;;;7.57;100.00;102286.53;5030656;28;20499;-72
2022/09/21 05:37:10;;;;;;;21.88;11.27;;;;;;;7.60;100.00;102285.84;5067226;28;20053;-70
2022/09/21 05:39:37;;;;;;;21.60;9.40;;;;;;;7.63;100.00;102291.47;5068093;28;20044;-70
2022/09/21 05:42:04;;;;;;;22.48;10.50;;;;;;;7.64;100.00;102290.34;5067521;28;20073;-73
2022/09/21 05:44:31;;;;;;;22.92;10.80;;;;;;;7.68;100.00;102295.97;5068327;28;20048;-72
2022/09/21 05:47:16;;;;;;;17.88;9.60;;;;;;;7.66;100.00;102289.97;5061011;28;20477;-73
2022/09/21 05:49:51;;;;;;;23.02;9.70;;;;;;;7.54;100.00;102287.19;5060125;28;20064;-72
2022/09/21 05:52:24;;;;;;;24.63;10.82;;;;;;;7.52;100.00;102295.81;5066418;28;20501;-71
2022/09/21 05:55:28;;;;;;;21.95;10.57;;;;;;;7.58;100.00;102297.22;5068227;28;20040;-74
2022/09/21 05:58:09;;;;;;;18.58;8.98;;;;;;;7.57;100.00;102303.06;5061813;28;20040;-71
2022/09/21 06:00:56;;;;;;;20.00;9.80;;;;;;;7.50;100.00;102309.09;5067734;28;20056;-72
2022/09/21 06:03:28;;;;;;;24.45;11.93;;;;;;;7.45;100.00;102311.25;5064054;28;20048;-72
2022/09/21 06:05:58;;;;;;;31.85;15.80;;;;;;;7.46;100.00;102296.34;5067251;28;20433;-71
2022/09/21 06:08:25;;;;;;;28.27;15.07;;;;;;;7.59;100.00;102309.00;5067884;28;20396;-71
2022/09/21 06:10:53;;;;;;;26.13;14.50;;;;;;;7.72;100.00;102316.19;5065503;28;20044;-71
2022/09/21 06:13:20;;;;;;;25.30;15.52;;;;;;;7.78;100.00;102312.88;5066467;28;20059;-72
2022/09/21 06:15:46;;;;;;;23.98;12.30;;;;;;;7.77;100.00;102303.00;5067915;28;20041;-72
2022/09/21 06:18:13;;;;;;;24.95;11.50;;;;;;;7.95;100.00;102315.47;5068188;28;20056;-72
2022/09/21 06:20:43;;;;;;;23.23;12.55;;;;;;;8.01;100.00;102324.31;5066892;28;20052;-69
2022/09/21 06:23:12;;;;;;;25.27;11.88;;;;;;;8.03;100.00;102322.00;5066605;28;20052;-72
2022/09/21 06:25:38;;;;;;;37.10;14.85;;;;;;;8.01;100.00;102313.28;5067860;28;20416;-72
2022/09/21 06:28:09;;;;;;;30.70;14.77;;;;;;;8.07;100.00;102323.75;5067205;28;20052;-72
2022/09/21 06:30:36;;;;;;;29.83;14.68;;;;;;;8.11;100.00;102326.63;5066255;28;20044;-71
2022/09/21 06:33:07;;;;;;;27.08;14.07;;;;;;;8.09;100.00;102303.31;5063568;28;20066;-72
2022/09/21 06:35:35;;;;;;;30.23;13.07;;;;;;;8.23;100.00;102323.91;5067254;28;20047;-70
2022/09/21 06:38:06;;;;;;;28.02;13.60;;;;;;;8.31;100.00;102328.53;5067182;28;20056;-73
2022/09/21 06:40:36;;;;;;;26.98;14.13;;;;;;;8.40;100.00;102325.66;5066149;28;20063;-73
2022/09/21 06:43:04;;;;;;;37.83;16.83;;;;;;;8.49;100.00;102326.34;5066108;28;20148;-73
2022/09/21 06:45:31;;;;;;;35.40;16.70;;;;;;;8.58;100.00;102316.00;5067338;28;20626;-73
2022/09/21 06:47:58;;;;;;;34.33;15.77;;;;;;;8.67;100.00;102325.78;5065954;28;20049;-73
2022/09/21 06:50:24;;;;;;;30.55;14.90;;;;;;;8.77;100.00;102319.78;5067270;28;20520;-71
2022/09/21 06:52:51;;;;;;;31.30;15.43;;;;;;;8.86;100.00;102322.41;5066492;28;20049;-73
2022/09/21 06:55:17;;;;;;;26.80;13.55;;;;;;;8.93;100.00;102323.44;5066698;28;20059;-73
2022/09/21 06:57:44;;;;;;;25.83;11.77;;;;;;;9.01;100.00;102324.47;5067174;28;20045;-72
2022/09/21 07:00:12;;;;;;;28.10;13.35;;;;;;;9.10;100.00;102325.94;5067145;28;20052;-66
2022/09/21 07:02:43;;;;;;;27.27;11.88;;;;;;;9.17;100.00;102322.59;5066085;28;20053;-67
2022/09/21 07:05:11;;;;;;;19.48;11.38;;;;;;;9.22;100.00;102314.06;5067032;28;20061;-67
2022/09/21 07:07:39;;;;;;;24.27;12.70;;;;;;;9.35;100.00;102319.19;5066366;28;20052;-68
2022/09/21 07:10:06;;;;;;;25.92;13.98;;;;;;;9.44;100.00;102322.63;5065922;28;20529;-67
2022/09/21 07:12:40;;;;;;;21.52;12.07;;;;;;;9.51;100.00;102314.53;5066116;28;20501;-68
2022/09/21 07:15:08;;;;;;;25.00;11.43;;;;;;;9.58;100.00;102311.16;5065489;28;20049;-69
2022/09/21 07:17:36;;;;;;;23.52;11.60;;;;;;;9.72;100.00;102312.38;5066966;28;20048;-66
2022/09/21 07:20:05;;;;;;;23.83;11.73;;;;;;;9.83;100.00;102318.19;5066445;28;20064;-68
2022/09/21 07:22:32;;;;;;;24.00;12.02;;;;;;;9.93;100.00;102321.22;5066117;28;20053;-67
2022/09/21 07:24:58;;;;;;;23.83;11.85;;;;;;;10.03;100.00;102315.19;5066962;28;20044;-68
2022/09/21 07:27:26;;;;;;;24.20;11.43;;;;;;;10.15;100.00;102325.41;5065725;28;20048;-68
2022/09/21 07:29:53;;;;;;;22.40;11.48;;;;;;;10.25;100.00;102319.34;5062459;28;20060;-67
2022/09/21 07:32:20;;;;;;;24.75;11.73;;;;;;;10.35;100.00;102319.63;5065153;28;20059;-70
2022/09/21 07:34:47;;;;;;;27.35;12.10;;;;;;;10.45;100.00;102319.06;5059164;28;20309;-69
2022/09/21 07:37:14;;;;;;;22.65;11.70;;;;;;;10.57;100.00;102317.38;5066131;28;20059;-69
2022/09/21 07:39:40;;;;;;;23.20;11.40;;;;;;;10.69;100.00;102322.81;5065824;28;20808;-66
2022/09/21 07:42:07;;;;;;;27.02;11.40;;;;;;;10.82;100.00;102321.50;5068680;28;20048;-67
2022/09/21 07:44:33;;;;;;;23.08;12.30;;;;;;;10.94;100.00;102330.53;5060207;28;20048;-67
2022/09/21 07:47:02;;;;;;;25.80;11.55;;;;;;;11.06;100.00;102315.72;5069905;28;20071;-68
2022/09/21 07:49:29;;;;;;;27.33;11.18;;;;;;;11.18;100.00;102321.16;5069469;28;20059;-68
2022/09/21 07:51:56;;;;;;;24.10;11.25;;;;;;;11.31;100.00;102314.31;5071962;28;20050;-68
2022/09/21 07:54:28;;;;;;;21.10;10.98;;;;;;;11.42;100.00;102320.88;5073431;28;20056;-68
2022/09/21 07:59:39;;;;;;;19.73;10.40;;;;;;;11.71;100.00;102323.88;5069749;28;20067;-68
2022/09/21 08:02:06;;;;;;;23.08;11.85;;;;;;;11.85;100.00;102317.81;5067477;28;20063;-67
2022/09/21 08:04:33;;;;;;;27.50;11.20;;;;;;;11.98;100.00;102317.28;5069683;28;20052;-66
2022/09/21 08:06:59;;;;;;;25.73;11.18;;;;;;;12.13;100.00;102332.22;5070096;28;20052;-67
2022/09/21 08:09:25;;;;;;;24.75;11.40;;;;;;;12.26;100.00;102325.31;5069721;28;20053;-68
2022/09/21 08:11:54;;;;;;;24.08;10.95;;;;;;;12.35;100.00;102318.34;5068830;28;20119;-66
2022/09/21 08:14:21;;;;;;;21.33;10.85;;;;;;;12.54;100.00;102325.78;5069584;28;20439;-70
2022/09/21 08:16:52;;;;;;;29.60;10.88;;;;;;;12.68;100.00;102320.47;5068522;28;20052;-66
2022/09/21 08:19:19;;;;;;;25.42;10.90;;;;;;;12.81;100.00;102319.06;5067631;28;20524;-68
2022/09/21 08:21:48;;;;;;;25.77;11.10;;;;;;;12.97;100.00;102317.72;5068582;28;20045;-66
2022/09/21 08:24:21;;;;;;;26.38;12.23;;;;;;;13.12;100.00;102320.75;5068490;28;20151;-67
2022/09/21 08:26:51;;;;;;;27.70;12.68;;;;;;;13.32;100.00;102324.97;5081937;28;20063;-67
2022/09/21 08:29:17;;;;;;;23.08;10.60;;;;;;;13.48;100.00;102329.19;5066292;28;20063;-70
2022/09/21 08:31:45;;;;;;;22.58;10.30;;;;;;;13.62;100.00;102328.53;5065458;28;20052;-66
2022/09/21 08:34:13;;;;;;;20.98;10.38;;;;;;;13.72;100.00;102320.34;5067448;28;20052;-68
2022/09/21 08:36:39;;;;;;;23.40;10.85;;;;;;;13.83;100.00;102329.59;5062663;28;20479;-68
2022/09/21 08:39:07;;;;;;;33.42;10.93;;;;;;;14.01;100.00;102327.78;5066092;28;20058;-68
2022/09/21 08:42:12;;;;;;;24.02;9.70;;;;;;;14.17;100.00;102330.38;5064414;28;20045;-69
2022/09/21 08:45:00;;;;;;;19.70;8.10;;;;;;;14.33;100.00;102328.94;5065476;28;20051;-68
2022/09/21 08:47:42;;;;;;;21.65;6.75;;;;;;;14.49;100.00;102329.50;5062534;28;20117;-70
2022/09/21 08:50:30;;;;;;;20.85;7.45;;;;;;;14.62;100.00;102316.06;5064377;28;20049;-65
2022/09/21 08:53:03;;;;;;;20.45;6.32;;;;;;;14.73;100.00;102325.28;5066329;28;20040;-70
2022/09/21 08:55:30;;;;;;;19.80;6.35;;;;;;;14.81;100.00;102324.16;5067045;28;20520;-69
2022/09/21 08:57:58;;;;;;;17.63;4.70;;;;;;;14.93;100.00;102324.66;5067195;28;20503;-68
2022/09/21 09:00:25;;;;;;;15.20;5.30;;;;;;;15.04;100.00;102330.28;5066242;28;20049;-69
2022/09/21 09:03:11;;;;;;;11.82;4.45;;;;;;;15.25;100.00;102322.84;5065466;28;20568;-70
2022/09/21 09:06:00;;;;;;;15.10;4.70;;;;;;;15.45;100.00;102326.94;5041682;28;20403;-70
2022/09/21 09:08:51;;;;;;;11.20;3.42;;;;;;;15.53;100.00;102331.34;5039717;28;20790;-70
2022/09/21 09:11:53;;;;;;;11.95;3.92;;;;;;;15.69;100.00;102328.22;5034334;28;20959;-69
2022/09/21 09:14:38;;;;;;;16.80;3.75;;;;;;;15.79;100.00;102327.47;4970729;28;20054;-71
2022/09/21 09:17:23;;;;;;;10.30;2.53;;;;;;;15.94;100.00;102333.88;5036503;28;20180;-68
2022/09/21 09:19:57;;;;;;;8.40;2.40;;;;;;;16.03;100.00;102332.31;5040661;28;20060;-70
2022/09/21 09:22:39;;;;;;;10.55;3.55;;;;;;;16.13;100.00;102327.97;5036363;28;20321;-70
2022/09/21 09:25:16;;;;;;;11.98;3.70;;;;;;;16.27;100.00;102339.16;5044262;28;20045;-68
2022/09/21 09:27:47;;;;;;;11.60;3.03;;;;;;;16.46;100.00;102339.59;5045651;28;20055;-69
2022/09/21 09:30:16;;;;;;;11.85;3.65;;;;;;;16.64;100.00;102339.59;5038439;28;20177;-68
2022/09/21 09:32:55;;;;;;;12.65;5.40;;;;;;;16.75;100.00;102334.78;5038365;28;20052;-70
2022/09/21 09:35:28;;;;;;;12.23;3.55;;;;;;;16.91;100.00;102335.97;5036059;28;20051;-68
2022/09/21 09:38:22;;;;;;;11.38;3.00;;;;;;;17.04;93.67;102342.72;5041890;28;20059;-67
2022/09/21 09:41:09;;;;;;;16.90;3.60;;;;;;;17.20;95.31;102334.72;5046224;28;20048;-69
2022/09/21 09:43:52;;;;;;;13.05;3.72;;;;;;;17.36;95.97;102335.06;5048137;28;20102;-68
2022/09/21 09:46:34;;;;;;;13.90;3.58;;;;;;;17.49;92.17;102341.81;5046929;28;20822;-70
2022/09/21 09:49:19;;;;;;;8.13;3.22;;;;;;;17.27;85.25;102342.28;5049704;28;20095;-68
2022/09/21 09:51:46;;;;;;;9.50;3.00;;;;;;;17.30;85.37;102342.28;5043953;28;20048;-69
2022/09/21 09:54:16;;;;;;;10.45;3.17;;;;;;;17.30;83.04;102338.66;5050129;28;20049;-67
2022/09/21 09:56:42;;;;;;;12.35;3.30;;;;;;;17.34;83.53;102329.06;5050611;28;20055;-70
2022/09/21 09:59:18;;;;;;;10.57;2.88;;;;;;;17.59;85.82;102329.78;5046339;28;20072;-71
2022/09/21 10:01:46;;;;;;;8.32;2.42;;;;;;;17.71;83.83;102328.53;5041510;28;20126;-71
2022/09/21 10:04:16;;;;;;;9.15;2.67;;;;;;;17.72;83.89;102316.94;5034543;28;20070;-68
2022/09/21 10:06:43;;;;;;;10.75;2.70;;;;;;;17.71;84.15;102323.75;5050003;28;20153;-67
2022/09/21 10:09:31;;;;;;;9.65;2.88;;;;;;;17.64;82.68;102325.78;5052739;28;20483;-71
2022/09/21 10:12:15;;;;;;;7.95;2.40;;;;;;;17.44;76.28;102338.66;5046528;28;20070;-69
2022/09/21 10:14:50;;;;;;;3.35;1.95;;;;;;;17.14;76.22;102336.31;5046651;28;20051;-70
2022/09/21 10:17:17;;;;;;;6.93;2.17;;;;;;;17.21;78.24;102330.69;5050525;28;20048;-70
2022/09/21 10:19:45;;;;;;;7.68;2.47;;;;;;;17.08;77.59;102334.34;5048539;28;20091;-71
2022/09/21 10:22:19;;;;;;;9.85;2.30;;;;;;;17.03;79.45;102329.94;5052723;28;20064;-70
2022/09/21 10:24:50;;;;;;;8.73;1.95;;;;;;;17.05;80.15;102327.53;5048212;28;20059;-68
2022/09/21 10:27:24;;;;;;;10.85;2.80;;;;;;;17.05;78.91;102335.16;5048697;28;20109;-68
2022/09/21 10:29:50;;;;;;;8.27;1.75;;;;;;;17.12;80.64;102326.75;5045904;28;20243;-67
2022/09/21 10:32:21;;;;;;;11.13;2.00;;;;;;;17.05;78.92;102332.34;5046984;28;20053;-69
2022/09/21 10:35:11;;;;;;;5.95;1.80;;;;;;;16.97;77.77;102325.16;5049062;28;20052;-70
2022/09/21 10:37:42;;;;;;;4.97;1.85;;;;;;;16.95;77.25;102317.19;5044842;28;20044;-69
2022/09/21 10:40:18;;;;;;;11.82;2.10;;;;;;;16.97;76.28;102330.75;5044425;28;20056;-69
2022/09/21 10:42:47;;;;;;;11.98;1.70;;;;;;;17.14;78.99;102325.13;5039627;28;20045;-69
2022/09/21 10:45:25;;;;;;;6.15;2.00;;;;;;;17.20;80.44;102329.13;5044283;28;20056;-69
2022/09/21 10:48:12;;;;;;;10.68;2.67;;;;;;;17.25;82.49;102320.28;5049113;28;20504;-71
2022/09/21 10:50:41;;;;;;;7.95;2.22;;;;;;;17.36;83.12;102320.25;5038984;28;20048;-70
2022/09/21 10:53:07;;;;;;;5.80;1.98;;;;;;;17.38;81.97;102320.69;5045534;28;20044;-70
2022/09/21 10:55:38;;;;;;;8.05;2.10;;;;;;;17.44;82.90;102316.25;5041596;28;20048;-71
2022/09/21 10:58:18;;;;;;;14.45;2.90;;;;;;;17.52;82.21;102307.44;5043193;28;20245;-67
2022/09/21 11:00:50;;;;;;;5.53;2.00;;;;;;;17.59;81.80;102317.81;5048447;28;20048;-67
2022/09/21 11:03:29;;;;;;;8.75;2.00;;;;;;;17.62;81.55;102317.00;5040571;28;20067;-68
2022/09/21 11:06:02;;;;;;;6.35;1.80;;;;;;;17.67;81.84;102310.97;5047565;28;20328;-68
2022/09/21 11:08:55;;;;;;;9.85;1.90;;;;;;;17.74;83.99;102308.94;5049545;28;20053;-68
2022/09/21 11:11:54;;;;;;;8.05;1.83;;;;;;;17.74;80.14;102308.13;5037735;28;20049;-69
2022/09/21 11:14:26;;;;;;;5.38;1.73;;;;;;;17.84;82.15;102307.28;5047290;28;20053;-69
2022/09/21 11:17:11;;;;;;;7.13;1.90;;;;;;;17.90;80.53;102311.25;5047977;28;20056;-69
2022/09/21 11:19:41;;;;;;;8.88;1.95;;;;;;;17.97;80.50;102305.59;5048542;28;20044;-68
2022/09/21 11:22:41;;;;;;;5.07;1.98;;;;;;;18.05;77.13;102303.56;5047583;28;20690;-66
2022/09/21 11:25:19;;;;;;;4.00;1.70;;;;;;;18.12;78.50;102301.47;5051576;28;20063;-66
2022/09/21 11:28:12;;;;;;;7.40;1.58;;;;;;;18.18;80.23;102302.63;5049166;28;20067;-71
2022/09/21 11:31:00;;;;;;;7.18;1.70;;;;;;;18.19;75.85;102301.44;5051262;28;20055;-70
2022/09/21 11:33:38;;;;;;;7.85;1.58;;;;;;;18.18;74.81;102304.63;5045961;28;20056;-71
2022/09/21 11:36:11;;;;;;;7.43;1.70;;;;;;;18.21;75.54;102303.81;5052300;28;20829;-71
2022/09/21 11:39:15;;;;;;;9.27;1.90;;;;;;;18.20;74.20;102289.03;5041880;28;20052;-71
2022/09/21 11:41:57;;;;;;;7.50;1.52;;;;;;;18.19;74.66;102287.41;5040231;28;20048;-68
2022/09/21 11:44:51;;;;;;;8.32;1.85;;;;;;;18.15;77.80;102283.84;5045606;28;20052;-69